createdAt,value
2019-04-22T00:00:08.471Z,16.00
2019-04-22T00:02:44.782Z,15.90
2019-04-22T00:05:18.945Z,15.90
2019-04-22T00:08:01.626Z,15.90
2019-04-22T00:10:39.709Z,15.90
2019-04-22T00:13:10.946Z,15.90
2019-04-22T00:15:32.547Z,15.90
2019-04-22T00:18:16.579Z,15.90
2019-04-22T00:20:48.394Z,15.80
2019-04-22T00:23:14.044Z,15.80
2019-04-22T00:25:42.094Z,15.70
2019-04-22T00:28:14.645Z,15.70
2019-04-22T00:30:42.004Z,15.60
2019-04-22T00:33:24.936Z,15.60
2019-04-22T00:35:49.328Z,15.60
2019-04-22T00:38:23.998Z,15.50
2019-04-22T00:40:50.950Z,15.50
2019-04-22T00:43:24.312Z,15.40
2019-04-22T00:45:57.762Z,15.40
2019-04-22T00:48:27.885Z,15.30
2019-04-22T00:51:13.117Z,15.30
2019-04-22T00:53:30.147Z,15.20
2019-04-22T00:56:11.318Z,15.10
2019-04-22T00:58:40.611Z,15.10
2019-04-22T01:01:17.498Z,15.10
2019-04-22T01:06:09.549Z,15.00
2019-04-22T01:08:48.090Z,15.00
2019-04-22T01:11:16.800Z,15.00
2019-04-22T01:13:47.119Z,14.90
2019-04-22T01:16:17.662Z,14.90
2019-04-22T01:18:45.818Z,14.80
2019-04-22T01:21:25.858Z,14.80
2019-04-22T01:23:47.659Z,14.80
2019-04-22T01:26:20.025Z,14.70
2019-04-22T01:28:48.954Z,14.60
2019-04-22T01:31:08.287Z,14.60
2019-04-22T01:33:39.006Z,14.50
2019-04-22T01:36:25.841Z,14.50
2019-04-22T01:38:58.272Z,14.40
2019-04-22T01:41:37.554Z,14.40
2019-04-22T01:44:07.153Z,14.30
2019-04-22T01:46:42.677Z,14.30
2019-04-22T01:48:59.578Z,14.20
2019-04-22T01:51:48.555Z,14.20
2019-04-22T01:54:03.940Z,14.10
2019-04-22T01:56:37.392Z,14.00
2019-04-22T01:58:59.038Z,14.00
2019-04-22T02:01:40.115Z,14.00
2019-04-22T02:04:08.871Z,14.00
2019-04-22T02:06:34.862Z,14.00
2019-04-22T02:09:12.488Z,14.00
2019-04-22T02:11:38.913Z,13.90
2019-04-22T02:14:14.792Z,15.00
2019-04-22T02:16:41.611Z,13.80
2019-04-22T02:19:12.647Z,13.80
2019-04-22T02:21:35.421Z,13.80
2019-04-22T02:24:09.065Z,13.80
2019-04-22T02:26:41.861Z,13.70
2019-04-22T02:29:18.160Z,13.70
2019-04-22T02:34:35.168Z,13.60
2019-04-22T02:36:47.444Z,13.50
2019-04-22T02:42:02.994Z,13.50
2019-04-22T02:47:11.976Z,13.40
2019-04-22T02:51:43.199Z,13.40
2019-04-22T02:56:48.235Z,13.30
2019-04-22T03:01:47.733Z,13.30
2019-04-22T03:04:20.732Z,13.20
2019-04-22T03:06:43.706Z,13.20
2019-04-22T03:09:23.599Z,13.20
2019-04-22T03:12:23.683Z,13.00
2019-04-22T03:14:44.060Z,13.00
2019-04-22T03:17:15.946Z,13.00
2019-04-22T03:19:57.246Z,13.00
2019-04-22T03:22:19.276Z,13.00
2019-04-22T03:25:05.562Z,13.00
2019-04-22T03:33:06.494Z,12.90
2019-04-22T03:40:28.631Z,12.80
2019-04-22T03:47:54.300Z,12.70
2019-04-22T03:52:53.074Z,12.70
2019-04-22T03:57:50.029Z,12.60
2019-04-22T04:00:30.298Z,12.60
2019-04-22T04:05:33.901Z,12.50
2019-04-22T04:07:57.788Z,12.50
2019-04-22T04:13:03.572Z,12.40
2019-04-22T04:17:56.832Z,12.30
2019-04-22T04:23:08.379Z,12.20
2019-04-22T04:25:37.544Z,12.20
2019-04-22T04:28:24.533Z,12.20
2019-04-22T04:30:29.885Z,12.10
2019-04-22T04:32:59.108Z,12.10
2019-04-22T04:38:08.210Z,12.10
2019-04-22T04:40:46.166Z,12.00
2019-04-22T04:45:38.256Z,12.00
2019-04-22T04:48:21.068Z,12.00
2019-04-22T04:50:27.815Z,12.00
2019-04-22T04:55:28.022Z,12.00
2019-04-22T05:03:14.966Z,11.90
2019-04-22T05:05:43.266Z,11.90
2019-04-22T05:08:00.168Z,11.90
2019-04-22T05:10:49.842Z,11.90
2019-04-22T05:13:23.427Z,11.90
2019-04-22T05:18:20.801Z,11.90
2019-04-22T05:23:05.844Z,11.90
2019-04-22T05:25:36.837Z,11.90
2019-04-22T05:28:05.012Z,11.90
2019-04-22T05:30:56.378Z,12.00
2019-04-22T05:33:08.740Z,12.00
2019-04-22T05:35:40.920Z,12.00
2019-04-22T05:38:17.194Z,12.10
2019-04-22T05:40:34.368Z,12.10
2019-04-22T05:43:08.003Z,12.20
2019-04-22T05:45:38.624Z,12.20
2019-04-22T05:48:09.412Z,12.30
2019-04-22T05:50:48.841Z,12.30
2019-04-22T05:53:09.883Z,12.40
2019-04-22T05:55:52.087Z,12.40
2019-04-22T05:58:19.977Z,12.50
2019-04-22T06:01:21.852Z,12.60
2019-04-22T06:03:17.229Z,12.60
2019-04-22T06:05:49.007Z,12.70
2019-04-22T06:08:24.178Z,12.80
2019-04-22T06:10:54.106Z,12.90
2019-04-22T06:13:23.790Z,13.00
2019-04-22T06:15:53.060Z,13.00
2019-04-22T06:18:27.458Z,13.10
2019-04-22T06:21:09.004Z,13.20
2019-04-22T06:23:34.505Z,13.40
2019-04-22T06:31:02.475Z,13.60
2019-04-22T06:33:34.528Z,13.70
2019-04-22T06:36:02.674Z,13.90
2019-04-22T06:41:09.105Z,14.20
2019-04-22T06:43:36.879Z,14.40
2019-04-22T06:46:10.988Z,14.50
2019-04-22T06:48:35.782Z,14.60
2019-04-22T06:51:06.489Z,14.80
2019-04-22T06:53:37.465Z,14.90
2019-04-22T06:56:06.680Z,15.00
2019-04-22T06:58:34.706Z,15.20
2019-04-22T07:01:09.501Z,15.30
2019-04-22T07:03:51.631Z,15.50
2019-04-22T07:06:09.522Z,15.60
2019-04-22T07:09:06.674Z,15.80
2019-04-22T07:11:12.482Z,15.90
2019-04-22T07:13:43.856Z,16.10
2019-04-22T07:16:13.433Z,16.20
2019-04-22T07:18:46.532Z,16.40
2019-04-22T07:21:06.424Z,16.50
2019-04-22T07:26:08.801Z,16.80
2019-04-22T07:28:37.781Z,17.00
2019-04-22T07:31:20.515Z,17.20
2019-04-22T07:33:48.137Z,17.30
2019-04-22T07:36:36.977Z,17.50
2019-04-22T07:38:36.276Z,17.60
2019-04-22T07:41:12.446Z,17.80
2019-04-22T07:44:02.940Z,17.90
2019-04-22T07:46:13.507Z,18.10
2019-04-22T07:49:39.090Z,18.20
2019-04-22T07:53:48.938Z,18.60
2019-04-22T07:56:19.697Z,18.70
2019-04-22T07:58:49.094Z,18.90
2019-04-22T08:01:20.305Z,19.00
2019-04-22T08:04:05.226Z,19.20
2019-04-22T08:08:55.195Z,19.50
2019-04-22T08:11:37.161Z,19.60
2019-04-22T08:13:47.401Z,19.80
2019-04-22T08:16:23.159Z,19.90
2019-04-22T08:18:59.672Z,20.00
2019-04-22T08:21:18.378Z,20.10
2019-04-22T08:23:56.901Z,20.30
2019-04-22T08:26:27.335Z,20.30
2019-04-22T08:28:59.314Z,20.50
2019-04-22T08:31:28.577Z,20.50
2019-04-22T08:34:01.972Z,20.60
2019-04-22T08:36:37.645Z,20.80
2019-04-22T08:39:09.672Z,20.90
2019-04-22T08:41:34.947Z,21.10
2019-04-22T08:46:33.075Z,21.40
2019-04-22T08:49:07.114Z,21.50
2019-04-22T08:51:31.069Z,21.60
2019-04-22T08:54:10.211Z,21.70
2019-04-22T08:59:10.881Z,21.90
2019-04-22T09:01:35.913Z,22.00
2019-04-22T09:06:49.341Z,22.10
2019-04-22T09:09:07.722Z,22.20
2019-04-22T09:11:44.942Z,22.30
2019-04-22T09:14:09.745Z,22.50
2019-04-22T09:17:02.013Z,22.60
2019-04-22T09:19:28.616Z,22.70
2019-04-22T09:22:00.431Z,22.90
2019-04-22T09:24:29.657Z,23.00
2019-04-22T09:27:05.860Z,23.10
2019-04-22T09:29:34.027Z,23.20
2019-04-22T09:32:09.532Z,23.30
2019-04-22T09:34:33.859Z,23.40
2019-04-22T09:39:34.309Z,23.60
2019-04-22T09:42:07.892Z,23.70
2019-04-22T09:44:36.316Z,23.80
2019-04-22T09:47:07.335Z,23.90
2019-04-22T09:52:11.606Z,24.10
2019-04-22T09:54:47.780Z,24.20
2019-04-22T09:57:09.308Z,24.20
2019-04-22T09:59:46.294Z,24.30
2019-04-22T10:04:43.221Z,24.50
2019-04-22T10:07:19.828Z,24.70
2019-04-22T10:12:16.657Z,25.00
2019-04-22T10:14:45.698Z,25.10
2019-04-22T10:17:15.477Z,25.30
2019-04-22T10:19:41.134Z,25.40
2019-04-22T10:22:19.314Z,25.50
2019-04-22T10:24:45.416Z,25.60
2019-04-22T10:27:16.243Z,25.70
2019-04-22T10:29:49.409Z,25.80
2019-04-22T10:32:17.544Z,25.90
2019-04-22T10:34:39.865Z,26.00
2019-04-22T10:37:11.018Z,26.10
2019-04-22T10:39:50.615Z,26.20
2019-04-22T10:42:11.572Z,26.20
2019-04-22T10:44:41.448Z,26.30
2019-04-22T10:47:11.785Z,26.40
2019-04-22T10:49:40.726Z,26.40
2019-04-22T10:52:10.773Z,26.50
2019-04-22T10:54:41.205Z,26.60
2019-04-22T10:57:10.863Z,26.70
2019-04-22T10:59:40.796Z,26.70
2019-04-22T11:02:09.834Z,26.80
2019-04-22T11:04:38.709Z,26.90
2019-04-22T11:07:10.823Z,27.00
2019-04-22T11:09:49.326Z,27.10
2019-04-22T11:12:13.884Z,27.10
2019-04-22T11:14:41.843Z,27.10
2019-04-22T11:17:09.613Z,27.30
2019-04-22T11:19:39.463Z,27.40
2019-04-22T11:22:16.846Z,27.50
2019-04-22T11:24:38.967Z,27.60
2019-04-22T11:27:08.348Z,27.70
2019-04-22T11:29:37.542Z,27.80
2019-04-22T11:32:06.688Z,27.80
2019-04-22T11:34:35.568Z,27.90
2019-04-22T11:37:05.247Z,28.00
2019-04-22T11:39:36.208Z,28.00
2019-04-22T11:42:05.025Z,28.10
2019-04-22T11:44:35.194Z,28.10
2019-04-22T11:47:05.357Z,28.20
2019-04-22T11:49:34.525Z,28.20
2019-04-22T11:52:05.488Z,28.30
2019-04-22T11:54:34.700Z,28.30
2019-04-22T11:57:05.337Z,28.40
2019-04-22T11:59:34.467Z,28.40
2019-04-22T12:02:04.640Z,28.40
2019-04-22T12:04:33.978Z,28.50
2019-04-22T12:07:04.253Z,28.50
2019-04-22T12:09:33.512Z,28.50
2019-04-22T12:12:03.496Z,28.50
2019-04-22T12:14:34.019Z,28.50
2019-04-22T12:17:03.586Z,28.50
2019-04-22T12:19:33.460Z,28.50
2019-04-22T12:22:02.983Z,28.50
2019-04-22T12:24:34.238Z,28.50
2019-04-22T12:27:04.322Z,28.50
2019-04-22T12:29:33.333Z,28.50
2019-04-22T12:32:03.266Z,28.60
2019-04-22T12:34:33.258Z,28.60
2019-04-22T12:37:02.683Z,28.60
2019-04-22T12:39:31.695Z,28.60
2019-04-22T12:42:00.552Z,28.70
2019-04-22T12:44:30.476Z,28.70
2019-04-22T12:47:01.995Z,28.70
2019-04-22T12:49:29.996Z,28.80
2019-04-22T12:51:59.008Z,28.80
2019-04-22T12:54:29.041Z,28.80
2019-04-22T12:56:57.985Z,28.90
2019-04-22T12:59:27.959Z,28.90
2019-04-22T13:01:58.548Z,28.90
2019-04-22T13:04:27.984Z,29.00
2019-04-22T13:06:57.690Z,29.00
2019-04-22T13:09:27.519Z,29.00
2019-04-22T13:11:57.155Z,29.10
2019-04-22T13:14:27.238Z,29.10
2019-04-22T13:16:57.607Z,29.10
2019-04-22T13:19:28.234Z,29.20
2019-04-22T13:22:00.929Z,29.20
2019-04-22T13:24:32.072Z,29.30
2019-04-22T13:27:01.251Z,29.30
2019-04-22T13:29:31.146Z,29.40
2019-04-22T13:32:00.597Z,29.40
2019-04-22T13:34:37.631Z,29.50
2019-04-22T13:37:01.175Z,29.50
2019-04-22T13:39:31.283Z,29.60
2019-04-22T13:42:03.943Z,29.60
2019-04-22T13:44:31.455Z,29.70
2019-04-22T13:47:14.739Z,29.70
2019-04-22T13:54:12.642Z,29.80
2019-04-22T13:54:58.705Z,29.80
2019-04-22T13:57:20.120Z,29.80
2019-04-22T13:59:40.898Z,29.80
2019-04-22T14:02:26.675Z,29.80
2019-04-22T14:04:56.748Z,29.90
2019-04-22T14:07:25.605Z,30.00
2019-04-22T14:09:54.393Z,30.10
2019-04-22T14:12:24.472Z,30.20
2019-04-22T14:14:54.384Z,30.30
2019-04-22T14:17:25.023Z,30.40
2019-04-22T14:19:55.028Z,30.40
2019-04-22T14:22:23.889Z,30.60
2019-04-22T14:24:52.735Z,30.60
2019-04-22T14:27:30.606Z,30.60
2019-04-22T14:29:53.509Z,30.70
2019-04-22T14:32:27.530Z,30.60
2019-04-22T14:34:53.248Z,30.60
2019-04-22T14:37:22.460Z,30.60
2019-04-22T14:39:51.744Z,30.60
2019-04-22T14:42:39.651Z,30.60
2019-04-22T14:45:30.514Z,30.40
2019-04-22T14:47:49.440Z,30.30
2019-04-22T14:50:14.705Z,30.20
2019-04-22T14:52:46.337Z,30.10
2019-04-22T14:55:05.035Z,30.10
2019-04-22T14:57:26.262Z,30.10
2019-04-22T14:59:54.001Z,30.10
2019-04-22T15:02:23.684Z,30.10
2019-04-22T15:04:54.134Z,30.30
2019-04-22T15:07:23.259Z,30.40
2019-04-22T15:09:52.319Z,30.50
2019-04-22T15:12:33.658Z,30.70
2019-04-22T15:14:51.547Z,31.00
2019-04-22T15:17:45.351Z,31.10
2019-04-22T15:20:37.511Z,31.30
2019-04-22T15:23:06.747Z,31.50
2019-04-22T15:25:36.735Z,31.70
2019-04-22T15:28:05.891Z,31.80
2019-04-22T15:30:35.212Z,31.90
2019-04-22T15:33:05.415Z,31.90
2019-04-22T15:35:35.412Z,32.00
2019-04-22T15:38:04.795Z,32.10
2019-04-22T15:40:34.598Z,32.20
2019-04-22T15:43:04.704Z,32.30
2019-04-22T15:45:34.932Z,32.50
2019-04-22T15:48:04.170Z,32.60
2019-04-22T15:50:33.161Z,32.60
2019-04-22T15:53:02.993Z,32.70
2019-04-22T15:55:32.660Z,32.80
2019-04-22T15:58:01.865Z,32.90
2019-04-22T16:00:41.529Z,32.90
2019-04-22T16:03:04.213Z,33.00
2019-04-22T16:05:32.256Z,33.00
2019-04-22T16:08:03.478Z,33.10
2019-04-22T16:10:33.585Z,33.10
2019-04-22T16:13:09.423Z,33.00
2019-04-22T16:15:34.317Z,33.00
2019-04-22T16:18:05.246Z,33.00
2019-04-22T16:20:34.333Z,33.00
2019-04-22T16:23:13.136Z,33.00
2019-04-22T16:25:49.250Z,32.90
2019-04-22T16:28:19.530Z,32.70
2019-04-22T16:30:48.954Z,32.40
2019-04-22T16:33:19.344Z,32.10
2019-04-22T16:35:48.964Z,31.70
2019-04-22T16:38:19.082Z,31.40
2019-04-22T16:40:48.626Z,31.10
2019-04-22T16:43:17.834Z,30.80
2019-04-22T16:45:47.717Z,30.50
2019-04-22T16:48:17.734Z,30.30
2019-04-22T16:50:49.049Z,30.10
2019-04-22T16:53:18.896Z,29.90
2019-04-22T16:55:48.857Z,29.70
2019-04-22T16:58:18.926Z,29.20
2019-04-22T17:00:49.558Z,29.00
2019-04-22T17:03:38.701Z,29.00
2019-04-22T17:06:17.160Z,28.90
2019-04-22T17:08:46.678Z,28.80
2019-04-22T17:11:16.050Z,28.70
2019-04-22T17:13:46.177Z,28.60
2019-04-22T17:16:16.049Z,28.50
2019-04-22T17:18:45.531Z,28.40
2019-04-22T17:21:15.622Z,28.30
2019-04-22T17:23:45.726Z,28.20
2019-04-22T17:26:14.908Z,28.10
2019-04-22T17:28:43.943Z,28.00
2019-04-22T17:31:13.050Z,27.90
2019-04-22T17:33:41.949Z,27.70
2019-04-22T17:36:11.960Z,27.60
2019-04-22T17:38:52.017Z,27.50
2019-04-22T17:41:24.396Z,27.50
2019-04-22T17:44:06.242Z,27.40
2019-04-22T17:46:46.391Z,27.30
2019-04-22T17:49:37.283Z,27.30
2019-04-22T17:52:21.079Z,27.20
2019-04-22T17:54:54.330Z,27.20
2019-04-22T17:57:21.748Z,27.10
2019-04-22T17:59:51.894Z,27.00
2019-04-22T18:02:24.154Z,26.90
2019-04-22T18:04:38.719Z,26.80
2019-04-22T18:07:33.013Z,26.80
2019-04-22T18:12:33.819Z,26.60
2019-04-22T18:15:00.503Z,26.50
2019-04-22T18:17:30.474Z,26.50
2019-04-22T18:19:53.124Z,26.40
2019-04-22T18:22:21.949Z,26.40
2019-04-22T18:24:52.893Z,26.30
2019-04-22T18:27:38.884Z,26.30
2019-04-22T18:29:55.566Z,26.20
2019-04-22T18:32:20.389Z,26.20
2019-04-22T18:34:54.198Z,26.10
2019-04-22T18:37:24.562Z,26.00
2019-04-22T18:40:03.273Z,25.90
2019-04-22T18:42:27.093Z,25.90
2019-04-22T18:45:12.701Z,25.80
2019-04-22T18:47:29.433Z,25.80
2019-04-22T18:50:02.531Z,25.70
2019-04-22T18:52:54.176Z,25.60
2019-04-22T18:55:30.848Z,25.50
2019-04-22T18:58:02.996Z,25.40
2019-04-22T19:00:21.365Z,25.30
2019-04-22T19:02:58.503Z,25.30
2019-04-22T19:05:35.885Z,25.20
2019-04-22T19:08:18.339Z,25.10
2019-04-22T19:13:45.251Z,25.00
2019-04-22T19:15:54.218Z,24.90
2019-04-22T19:18:29.127Z,24.80
2019-04-22T19:20:53.483Z,24.80
2019-04-22T19:23:22.711Z,24.70
2019-04-22T19:25:47.451Z,24.70
2019-04-22T19:28:31.222Z,24.60
2019-04-22T19:30:59.533Z,24.50
2019-04-22T19:33:23.634Z,24.50
2019-04-22T19:35:56.194Z,24.30
2019-04-22T19:38:14.351Z,24.30
2019-04-22T19:41:04.381Z,24.10
2019-04-22T19:43:28.296Z,24.10
2019-04-22T19:45:55.736Z,24.10
2019-04-22T19:48:32.918Z,24.00
2019-04-22T19:51:04.721Z,24.00
2019-04-22T19:53:29.728Z,23.90
2019-04-22T19:55:55.507Z,23.90
2019-04-22T19:58:31.557Z,23.80
2019-04-22T20:01:22.125Z,23.80
2019-04-22T20:04:36.419Z,23.70
2019-04-22T20:07:09.909Z,23.60
2019-04-22T20:09:43.704Z,23.50
2019-04-22T20:12:06.637Z,23.50
2019-04-22T20:14:43.688Z,23.40
2019-04-22T20:17:07.534Z,23.30
2019-04-22T20:19:45.764Z,23.20
2019-04-22T20:22:12.653Z,23.10
2019-04-22T20:24:28.122Z,22.90
2019-04-22T20:27:13.631Z,22.90
2019-04-22T20:29:53.156Z,22.80
2019-04-22T20:32:18.819Z,22.80
2019-04-22T20:34:52.852Z,22.80
2019-04-22T20:37:22.305Z,22.70
2019-04-22T20:40:00.518Z,22.60
2019-04-22T20:42:31.382Z,22.60
2019-04-22T20:45:05.333Z,22.50
2019-04-22T20:47:16.501Z,22.50
2019-04-22T20:49:48.777Z,22.40
2019-04-22T20:52:26.677Z,22.30
2019-04-22T20:54:44.613Z,22.30
2019-04-22T20:57:17.286Z,22.20
2019-04-22T20:59:49.842Z,22.10
2019-04-22T21:02:14.965Z,22.10
2019-04-22T21:04:41.520Z,22.00
2019-04-22T21:07:15.118Z,22.00
2019-04-22T21:09:48.993Z,21.70
2019-04-22T21:12:13.750Z,21.70
2019-04-22T21:15:00.451Z,21.70
2019-04-22T21:17:22.705Z,21.70
2019-04-22T21:20:00.687Z,21.60
2019-04-22T21:22:29.201Z,21.60
2019-04-22T21:24:50.209Z,21.60
2019-04-22T21:27:35.377Z,21.50
2019-04-22T21:29:50.746Z,21.50
2019-04-22T21:32:23.753Z,21.40
2019-04-22T21:35:06.539Z,21.30
2019-04-22T21:37:36.050Z,21.30
2019-04-22T21:39:52.856Z,21.20
2019-04-22T21:42:31.984Z,21.20
2019-04-22T21:45:00.464Z,21.10
2019-04-22T21:47:34.994Z,21.00
2019-04-22T21:50:18.389Z,21.00
2019-04-22T21:52:28.062Z,20.80
2019-04-22T21:55:08.687Z,20.80
2019-04-22T21:57:57.709Z,20.80
2019-04-22T22:00:34.511Z,20.70
2019-04-22T22:02:52.224Z,20.70
2019-04-22T22:05:12.487Z,20.70
2019-04-22T22:07:32.907Z,20.60
2019-04-22T22:10:22.899Z,20.60
2019-04-22T22:12:54.959Z,20.50
2019-04-22T22:15:22.759Z,20.40
2019-04-22T22:17:51.613Z,20.40
2019-04-22T22:20:20.797Z,20.30
2019-04-22T22:23:00.650Z,20.30
2019-04-22T22:25:25.119Z,20.20
2019-04-22T22:27:53.330Z,20.10
2019-04-22T22:33:01.597Z,20.10
2019-04-22T22:35:29.547Z,20.00
2019-04-22T22:37:57.512Z,20.00
2019-04-22T22:40:15.660Z,19.90
2019-04-22T22:42:45.651Z,19.90
2019-04-22T22:45:22.483Z,19.80
2019-04-22T22:48:09.536Z,19.80
2019-04-22T22:50:34.722Z,19.70
2019-04-22T22:53:17.202Z,19.70
2019-04-22T22:55:37.576Z,19.60
2019-04-22T22:58:11.435Z,19.60
2019-04-22T23:00:36.951Z,19.50
2019-04-22T23:03:38.405Z,19.50
2019-04-22T23:05:49.231Z,19.40
2019-04-22T23:08:16.695Z,19.40
2019-04-22T23:10:52.010Z,19.40
2019-04-22T23:13:15.626Z,19.30
2019-04-22T23:15:41.877Z,19.20
2019-04-22T23:17:51.919Z,19.20
2019-04-22T23:20:27.534Z,19.00
2019-04-22T23:23:14.308Z,19.00
2019-04-22T23:25:53.656Z,18.90
2019-04-22T23:28:43.080Z,18.90
2019-04-22T23:31:31.937Z,18.90
2019-04-22T23:34:10.415Z,18.90
2019-04-22T23:37:05.338Z,18.90
2019-04-22T23:39:47.740Z,18.90
2019-04-22T23:42:20.879Z,18.90
2019-04-22T23:44:42.229Z,18.80
2019-04-22T23:47:32.432Z,18.80
2019-04-22T23:50:09.448Z,18.80
2019-04-22T23:52:53.090Z,18.70
2019-04-22T23:55:26.113Z,18.70
2019-04-22T23:58:19.117Z,18.60
